Monday, August 29, 2016
19:53 UTC
  |  Log In   |  Register Free
Airport Search:

Yellowstone Regional Airport
(KCOD)

Yellowstone Regional Airport Diagram
No Airport Diagram Available

FAA data valid effective Jul 21 2016 - Sep 15 2016 (unless otherwise noted).

 
 
 
 
 
 
 
 
 
 
 
 
 
 
Current Aviation Weather for KCOD

Weather Summary


The most recent METAR observation for COD was updated at: 12:55 UTC
METAR for COD is not available. Closest METAR is for
METAR

METAR KCOD 291935Z 02005KT 10SM CLR 24/11 A3030 RMK AO1

METAR KCOD 291915Z 09003KT 10SM CLR 24/09 A3031 RMK AO1

METAR KCOD 291855Z 00000KT 10SM CLR 24/09 A3032 RMK AO1

METAR KCOD 291835Z 00000KT 10SM CLR 24/08 A3033 RMK AO1

METAR KCOD 291815Z 05003KT 10SM CLR 23/08 A3034 RMK AO1

METAR KCOD 291755Z 33004KT 10SM CLR 22/09 A3034 RMK AO1 10220 20110 57007

METAR KCOD 291735Z 00000KT 10SM CLR 21/08 A3036 RMK AO1

METAR KCOD 291715Z 01003KT 10SM CLR 21/08 A3036 RMK AO1

METAR KCOD 291655Z 00000KT 10SM CLR 20/08 A3036 RMK AO1

METAR KPOY 291935Z 16007KT 10SM CLR 27/05 A3030 RMK AO2

METAR KU68 291935Z 17003KT 10SM CLR 27/06 A3025 RMK AO2

TAF for COD is not available.
TAF

KCOD - TAF KCOD 291725Z 2918/3018 05007KT P6SM FEW120 SCT250

KCOD - FM300200 20006KT P6SM FEW120 SCT250

KCOD - FM301700 13009KT P6SM FEW110 SCT250 AMD LTD TO CLD VIS AND WIND =

GlobalAir.com is loading additional information.
 Current Weather at COD
72.0 F° (22.0 C°)

Northwest winds at 4.6 mph
Pressure:
30.34 in
Humidity:
44%
Wind:
Northwest at 4.6 mph
Dew Point:
48.2 F° (9.0 C°)
Visibility:
10.00 mi
COD NOAA Radar




Find All Airport Services Find A Hotel Find A Rental Car Find A Golf Course Find A Restaurant $100 Hamburger



Airport Weather Forecast for KCOD

Translated METAR for KCOD (1935 UTC)
METAR:
KCOD 291935Z AUTO Yellowstone Regional, Cody, WY (KCOD). Aug 29, 1935Z, Automated. Wind from 020° at 5 knots, 10 statute miles visibility, Clear Skies, Temperature 24°C, Dewpoint 11°C, Altimeter is 30.30. Remarks: automated station without precipitation discriminator
Conditions at:
KCOD (Yellowstone Rgnl, WY) observed 1935 UTC 29 August 2016
Temperature:
72.0 F° (22.0 C°)
Dewpoint:
not reported - refer to area weather report
Pressure:
30.34 Hg
Winds:
not reported
Visibility:
10.00
Ceiling:
at least 12,000 feet AGL
Clouds:
not reported - refer to area weather report
Remarks:
site is un-manned

Translated TAF for TAF for COD is not available. Refer to local area forecast.
FBO's on the Field
FBO Company Facility Photos Services Transportation Aviation Fuel Prices: Prices include tax
Catering Weather Repair Courtesy Rental Type 100LL JetA JetA+ MOGAS 8087
 
Choice Aviation, LLC

This FBO has not yet been rated
FS:Independent
Last Updated: Aug-26
Login to update fuel prices
SS:
Contact Choice Aviation, LLCMore FBO Information
 
Add another FBO Facility Photos Catering Weather Repair Courtesy Rental Type 100LL JetA JetA+ MOGAS 8087
Services Transportation Aviation Fuel Prices: Prices include tax


model-print
model-print
model-print
model-print